Minster, OH (45865)

1:38 AM EDT on June 30, 2015 (GMT -0400)
5th Street | | Change Station
CLOSE
Current Station
Personal Weather Station
Location: Minster, OH
Elevation: 961 ft
Nearby Weather Stations

Elev 961 ft 40.40 °N, 84.38 °W | Updated 8 seconds ago

Overcast
Overcast
61.2 °F
Feels Like 61.2 °F
N
0.0
Wind Variable Wind from WSW
Gusts 0.0 mph

Today
High -- | Low -- °F
--% Chance of Precip.
Yesterday
High -- | Low -- °F
Precip. -- in
6:10 AM 9:11 PM
Waxing Gibbous, 96% visible
Pressure 29.84 in
Visibility 0.5 miles
Clouds Overcast 200 ft
Dew Point 60 °F
Humidity 96%
Rainfall in
Snow Depth Not available.
UV 0 out of 12
Pollen .60 out of 12
Air Quality Not available.
Flu Activity Sporadic
METAR KVES 300515Z AUTO 00000KT 1/2SM FG OVC002 15/15 A2984 RMK AO2

More Conditions Fewer Conditions

Pressure 29.84 in
Visibility 0.5 miles
Clouds Overcast 200 ft
Dew Point 60 °F
Humidity 96%
Rainfall in
Snow Depth Not available.
UV 0 out of 12
Pollen .60 out of 12
Air Quality Not available.
Flu Activity Sporadic
METAR KVES 300515Z AUTO 00000KT 1/2SM FG OVC002 15/15 A2984 RMK AO2

More Conditions Fewer Conditions

10-Day Weather Forecast

×

Almanac

Astronomy

Jun. 30, 2015 Rise Set
Actual Time
Civil Twilight
Nautical Twilight
Astronomical Twilight
Moon
Length of Visible Light
Length of Day
Tomorrow will be .
, % of the Moon is Illuminated

Today's Extremes

State Highs State Lows

Community

WunderPhotos

Upload Photos

1,833,970 photos uploaded!

WunderBlogs® & News

Nearby

Air Quality

  Air Quality AQ Index Pollutant
Not available.

Snow Depth

Station Depth Elevation

Earthquake Activity

City Distance Mag. Time & Date
Minimum magnitude displayed is 2.5.

Coastal Water Temperatures

Place Temperature

Stations

Nearby Weather Stations

Station Location Temp. Windchill Dew Point Humidity Wind Precip. Elev Updated Type